Time;durP1;ratioP1;P1;durP2;ratioP2;P2;SDS_P1;SDS_P2;PMS_P1;PMS_P2;Temp;Humidity;BMP_temperature;BMP_pressure;BME280_temperature;BME280_humidity;BME280_pressure;Samples;Min_cycle;Max_cycle;Signal;HPM_P1;HPM_P2
2022/01/21 00:02:26;;;;;;;16.77;14.93;;;;;;;18.71;39.98;101457.41;5033969;28;20041;-77
2022/01/21 00:04:53;;;;;;;18.48;16.27;;;;;;;18.71;40.08;101457.41;5033481;28;20449;-77
2022/01/21 00:07:25;;;;;;;16.70;14.93;;;;;;;18.72;39.92;101469.00;5033893;28;20057;-76
2022/01/21 00:09:55;;;;;;;17.70;15.80;;;;;;;18.71;40.16;101468.13;5033919;28;20053;-74
2022/01/21 00:12:25;;;;;;;17.08;15.10;;;;;;;18.72;40.06;101471.69;5034373;28;20049;-77
2022/01/21 00:14:52;;;;;;;17.45;15.55;;;;;;;18.73;40.08;101476.06;5033131;28;20053;-77
2022/01/21 00:17:22;;;;;;;17.55;15.65;;;;;;;18.73;40.00;101470.72;5033400;28;20061;-77
2022/01/21 00:30:01;;;;;;;17.77;15.45;;;;;;;18.73;40.01;101479.63;5033210;28;20053;-77
2022/01/21 00:30:55;;;;;;;19.30;15.30;;;;;;;18.74;40.06;101465.22;5035889;28;20049;-77
2022/01/21 00:33:22;;;;;;;17.90;16.02;;;;;;;18.74;40.11;101462.53;5035663;28;20045;-77
2022/01/21 00:35:49;;;;;;;16.83;15.05;;;;;;;18.73;40.06;101452.78;5033515;28;20056;-77
2022/01/21 00:38:17;;;;;;;15.57;13.55;;;;;;;18.74;40.02;101459.00;5034993;28;20060;-77
2022/01/21 00:40:45;;;;;;;17.90;15.98;;;;;;;18.73;40.15;101449.25;5034933;28;20053;-77
2022/01/21 00:43:19;;;;;;;16.48;14.68;;;;;;;18.73;40.10;101451.94;5032969;28;20049;-77
2022/01/21 00:45:46;;;;;;;18.75;15.23;;;;;;;18.71;40.19;101446.66;5033769;28;20061;-77
2022/01/21 00:48:15;;;;;;;17.48;15.68;;;;;;;18.71;40.29;101446.66;5033399;28;20050;-77
2022/01/21 00:50:43;;;;;;;17.48;15.23;;;;;;;18.70;40.22;101444.09;5034919;28;20052;-77
2022/01/21 00:53:10;;;;;;;17.40;15.35;;;;;;;18.72;40.32;101440.34;5033402;28;20064;-77
2022/01/21 00:55:37;;;;;;;17.02;14.35;;;;;;;18.71;40.24;101429.72;5034952;28;20041;-77
2022/01/21 00:58:06;;;;;;;17.20;15.00;;;;;;;18.70;40.35;101441.44;5034708;28;20041;-77
2022/01/21 01:00:36;;;;;;;17.00;14.55;;;;;;;18.70;40.37;101444.09;5034552;28;20500;-77
2022/01/21 01:03:04;;;;;;;18.10;15.05;;;;;;;18.69;40.27;101437.84;5017045;28;20057;-77
2022/01/21 01:05:32;;;;;;;17.15;14.40;;;;;;;18.69;40.20;101440.53;5035148;28;20050;-77
2022/01/21 01:08:00;;;;;;;18.95;15.20;;;;;;;18.70;40.28;101439.59;5032964;28;20045;-77
2022/01/21 01:10:45;;;;;;;18.30;14.93;;;;;;;18.71;40.40;101443.13;5033127;28;20053;-77
2022/01/21 01:21:24;;;;;;;15.85;14.05;;;;;;;18.71;40.26;101459.22;5032741;28;20053;-76
2022/01/21 01:29:20;;;;;;;16.45;14.38;;;;;;;18.71;40.10;101452.03;5034002;28;20045;-76
2022/01/21 01:31:47;;;;;;;17.27;14.05;;;;;;;18.71;40.45;101452.03;5032594;28;20045;-76
2022/01/21 01:34:15;;;;;;;18.27;15.10;;;;;;;18.71;40.31;101452.03;5034344;28;20045;-76
2022/01/21 01:36:45;;;;;;;17.15;15.25;;;;;;;18.70;40.42;101444.97;5032438;28;20060;-76
2022/01/21 01:39:29;;;;;;;17.23;14.88;;;;;;;18.70;40.37;101439.59;5032479;28;20393;-77
2022/01/21 01:42:15;;;;;;;17.65;14.02;;;;;;;18.69;40.28;101448.59;5033855;28;20477;-77
2022/01/21 01:50:38;;;;;;;17.52;14.18;;;;;;;18.70;40.49;101446.78;5032294;28;20057;-77
2022/01/21 01:53:06;;;;;;;16.70;13.18;;;;;;;18.69;40.53;101453.94;5032223;28;20053;-77
2022/01/21 01:55:35;;;;;;;15.88;13.57;;;;;;;18.69;40.48;101453.94;5032164;28;20056;-77
2022/01/21 01:58:03;;;;;;;16.50;13.82;;;;;;;18.69;40.42;101453.94;5034129;28;20053;-77
2022/01/21 02:00:31;;;;;;;15.07;12.82;;;;;;;18.70;40.50;101460.19;5032660;28;20128;-76
2022/01/21 02:03:09;;;;;;;17.17;13.50;;;;;;;18.69;40.47;101453.09;5033397;28;20052;-76
2022/01/21 02:05:37;;;;;;;16.45;13.68;;;;;;;18.69;40.61;101462.00;5032051;28;20061;-76
2022/01/21 02:08:06;;;;;;;18.27;13.60;;;;;;;18.70;40.57;101461.06;5033899;28;20485;-77
2022/01/21 02:10:36;;;;;;;16.00;12.68;;;;;;;18.69;40.76;101456.63;5033682;28;20405;-76
2022/01/21 02:13:19;;;;;;;16.75;13.95;;;;;;;18.70;40.75;101460.19;5033391;28;20042;-77
2022/01/21 02:21:44;;;;;;;15.35;12.63;;;;;;;18.69;40.95;101453.94;5033657;28;20053;-77
2022/01/21 02:24:18;;;;;;;17.52;14.30;;;;;;;18.68;40.87;101446.88;5034026;28;20056;-77
2022/01/21 02:26:47;;;;;;;16.73;13.57;;;;;;;18.69;40.93;101451.28;5031841;28;20046;-76
2022/01/21 02:29:27;;;;;;;15.75;13.18;;;;;;;18.69;40.92;101445.06;5031729;28;20413;-77
2022/01/21 02:31:58;;;;;;;16.75;13.50;;;;;;;18.69;40.95;101451.28;5031788;28;20080;-77
2022/01/21 02:34:27;;;;;;;16.73;13.70;;;;;;;18.69;41.12;101445.91;5031700;28;20053;-77
2022/01/21 02:36:55;;;;;;;16.77;13.18;;;;;;;18.68;41.01;101448.72;5031572;28;20061;-77
2022/01/21 02:39:22;;;;;;;18.70;14.50;;;;;;;18.65;41.13;101446.25;5032267;28;20053;-77
2022/01/21 02:41:50;;;;;;;15.63;12.68;;;;;;;18.62;41.30;101425.00;5015361;28;20057;-77
2022/01/21 02:44:18;;;;;;;17.45;13.50;;;;;;;18.59;41.33;101434.13;5032743;28;20050;-77
2022/01/21 02:46:55;;;;;;;20.55;13.82;;;;;;;18.57;41.52;101436.06;5031704;28;20401;-77
2022/01/21 02:49:24;;;;;;;17.40;14.52;;;;;;;18.56;41.33;101447.78;5031695;28;20080;-78
2022/01/21 02:51:53;;;;;;;18.52;13.88;;;;;;;18.56;41.58;101454.97;5031698;28;20054;-78
2022/01/21 02:54:21;;;;;;;19.52;14.20;;;;;;;18.55;41.44;101451.41;5033035;28;20050;-78
2022/01/21 02:56:49;;;;;;;19.83;13.95;;;;;;;18.55;41.54;101451.41;5033382;28;20391;-77
2022/01/21 02:59:17;;;;;;;17.05;13.05;;;;;;;18.54;41.41;101455.91;5032514;28;20053;-77
2022/01/21 03:01:44;;;;;;;17.40;13.65;;;;;;;18.54;41.65;101452.38;5035838;28;20058;-77
2022/01/21 03:04:19;;;;;;;16.63;13.00;;;;;;;18.54;41.49;101455.06;5035623;28;20060;-77
2022/01/21 03:06:46;;;;;;;16.98;13.52;;;;;;;18.54;41.60;101461.28;5035322;28;20045;-77
2022/01/21 03:09:14;;;;;;;19.95;13.52;;;;;;;18.54;41.42;101461.28;5035144;28;20049;-77
2022/01/21 03:11:43;;;;;;;17.70;13.52;;;;;;;18.54;41.38;101468.47;5036526;28;20050;-77
2022/01/21 03:14:10;;;;;;;16.48;13.43;;;;;;;18.54;41.54;101471.16;5035716;28;20049;-77
2022/01/21 03:16:37;;;;;;;19.00;14.48;;;;;;;18.54;41.52;101463.97;5035131;28;20056;-78
2022/01/21 03:19:05;;;;;;;18.08;13.55;;;;;;;18.54;41.36;101471.16;5036380;28;20396;-77
2022/01/21 03:21:33;;;;;;;16.70;13.75;;;;;;;18.55;41.34;101478.22;5035150;28;20049;-77
2022/01/21 03:24:00;;;;;;;17.25;13.50;;;;;;;18.54;41.27;101474.69;5034613;28;20049;-77
2022/01/21 03:26:28;;;;;;;16.55;13.00;;;;;;;18.56;41.26;101468.38;5034588;28;20061;-77
2022/01/21 03:28:59;;;;;;;16.13;13.13;;;;;;;18.56;41.21;101479.09;5035262;28;20057;-77
2022/01/21 03:31:30;;;;;;;16.05;12.95;;;;;;;18.55;41.22;101475.53;5034818;28;20065;-77
2022/01/21 03:34:00;;;;;;;16.17;13.40;;;;;;;18.56;41.17;101485.31;5034779;28;20057;-77
2022/01/21 03:36:31;;;;;;;16.88;12.82;;;;;;;18.56;41.22;101473.75;5034695;28;20046;-77
2022/01/21 03:38:59;;;;;;;17.33;12.82;;;;;;;18.57;41.16;101478.97;5035896;28;20045;-77
2022/01/21 03:41:26;;;;;;;18.55;13.30;;;;;;;18.56;41.23;101477.28;5034646;28;20056;-77
2022/01/21 03:43:55;;;;;;;17.40;12.75;;;;;;;18.57;41.34;101487.03;5034626;28;20527;-77
2022/01/21 03:46:22;;;;;;;16.65;13.05;;;;;;;18.57;41.27;101478.97;5034262;28;20405;-77
2022/01/21 03:48:50;;;;;;;17.35;13.48;;;;;;;18.57;41.22;101475.44;5034683;28;20054;-77
2022/01/21 03:51:20;;;;;;;17.58;13.40;;;;;;;18.57;41.29;101484.34;5018631;28;20053;-77
2022/01/21 03:53:50;;;;;;;16.73;13.00;;;;;;;18.56;41.16;101474.59;5034377;28;20049;-77
2022/01/21 03:56:20;;;;;;;15.55;12.75;;;;;;;18.57;41.23;101488.84;5034508;28;20497;-77
2022/01/21 03:58:51;;;;;;;17.83;14.15;;;;;;;18.57;41.30;101476.31;5034283;28;20054;-77
2022/01/21 04:01:19;;;;;;;17.08;14.00;;;;;;;18.54;41.24;101488.09;5034636;28;20494;-77
2022/01/21 04:03:47;;;;;;;17.40;14.20;;;;;;;18.55;41.31;101483.59;5034168;28;20049;-77
2022/01/21 04:06:15;;;;;;;18.90;13.77;;;;;;;18.54;41.24;101488.09;5034054;28;20524;-77
2022/01/21 04:08:43;;;;;;;15.80;13.38;;;;;;;18.55;41.31;101491.63;5034364;28;20398;-77
2022/01/21 04:11:11;;;;;;;18.15;13.98;;;;;;;18.54;41.27;101487.25;5033340;28;20060;-77
2022/01/21 04:13:45;;;;;;;16.42;12.75;;;;;;;18.54;41.25;101485.41;5033871;28;20060;-77
2022/01/21 04:16:17;;;;;;;15.25;12.95;;;;;;;18.53;41.38;101493.59;5034219;28;20052;-77
2022/01/21 04:18:45;;;;;;;15.68;12.35;;;;;;;18.53;41.48;101490.91;5034038;28;20061;-76
2022/01/21 04:21:13;;;;;;;16.95;13.25;;;;;;;18.51;41.32;101487.47;5034924;28;20064;-77
2022/01/21 04:23:41;;;;;;;17.02;13.20;;;;;;;18.50;41.42;101502.69;5034187;28;20054;-77
2022/01/21 04:26:14;;;;;;;16.00;13.48;;;;;;;18.50;41.55;101500.00;5034981;28;20045;-77
2022/01/21 04:28:42;;;;;;;16.90;13.25;;;;;;;18.50;41.40;101501.84;5033613;28;20050;-77
2022/01/21 04:31:09;;;;;;;16.08;12.38;;;;;;;18.50;41.31;101509.88;5033788;28;20060;-77
2022/01/21 04:33:43;;;;;;;15.88;13.00;;;;;;;18.50;41.30;101523.28;5033741;28;20159;-77
2022/01/21 04:36:12;;;;;;;16.33;13.00;;;;;;;18.49;41.45;101517.06;5034226;28;20072;-77
2022/01/21 04:38:39;;;;;;;16.08;11.85;;;;;;;18.49;41.48;101521.56;5033987;28;20049;-77
2022/01/21 04:49:15;;;;;;;14.55;11.60;;;;;;;18.48;41.43;101546.69;5033251;28;20068;-77
2022/01/21 04:52:02;;;;;;;14.27;12.40;;;;;;;18.48;41.34;101546.69;5033619;28;20489;-78
2022/01/21 04:54:45;;;;;;;16.70;12.85;;;;;;;18.48;41.55;101560.09;5033032;28;20469;-78
2022/01/21 04:57:13;;;;;;;14.73;11.63;;;;;;;18.47;41.46;101564.59;5033108;28;20041;-77
2022/01/21 04:59:42;;;;;;;13.93;11.38;;;;;;;18.48;41.49;101565.44;5033283;28;20045;-77
2022/01/21 05:02:11;;;;;;;13.57;12.05;;;;;;;18.48;41.45;101563.63;5033206;28;20064;-78
2022/01/21 05:04:39;;;;;;;16.45;11.65;;;;;;;18.48;41.51;101570.81;5032997;28;20053;-78
2022/01/21 05:07:10;;;;;;;15.60;11.93;;;;;;;18.48;41.37;101570.81;5017174;28;20064;-77
2022/01/21 05:09:38;;;;;;;14.73;12.43;;;;;;;18.48;41.41;101573.50;5016739;28;20045;-77
2022/01/21 05:12:09;;;;;;;13.77;10.88;;;;;;;18.48;41.42;101578.84;5034256;28;20049;-76
2022/01/21 05:15:08;;;;;;;13.82;11.55;;;;;;;18.48;41.54;101574.34;5033241;28;20053;-76
2022/01/21 05:17:43;;;;;;;14.65;12.13;;;;;;;18.48;41.43;101584.22;5033061;28;20057;-77
2022/01/21 05:20:12;;;;;;;15.73;11.40;;;;;;;18.49;41.42;101584.09;5032474;28;20060;-77
2022/01/21 05:23:05;;;;;;;12.70;11.35;;;;;;;18.48;41.45;101577.03;5032183;28;20068;-77
2022/01/21 05:25:33;;;;;;;12.32;10.90;;;;;;;18.50;41.44;101593.00;5017065;28;20489;-77
2022/01/21 05:28:01;;;;;;;12.52;11.18;;;;;;;18.50;41.39;101604.56;5033485;28;20053;-77
2022/01/21 05:30:33;;;;;;;13.27;11.17;;;;;;;18.49;41.13;101608.22;5017182;28;20429;-77
2022/01/21 05:33:13;;;;;;;13.73;10.82;;;;;;;18.50;41.45;101606.41;5032398;28;20501;-77
2022/01/21 05:36:13;;;;;;;13.82;12.02;;;;;;;18.51;41.15;101608.13;5012628;28;20505;-77
2022/01/21 05:39:01;;;;;;;13.07;10.98;;;;;;;18.50;41.27;101619.81;4998101;28;20109;-78
2022/01/21 05:41:50;;;;;;;12.95;11.43;;;;;;;18.50;41.24;101614.44;5005258;28;20058;-78
2022/01/21 05:47:17;;;;;;;12.73;10.75;;;;;;;18.50;41.31;101627.84;4995259;28;20061;-78
2022/01/21 05:50:03;;;;;;;13.90;11.30;;;;;;;18.48;41.35;101627.97;5011392;28;20042;-78
2022/01/21 05:52:49;;;;;;;13.48;11.65;;;;;;;18.47;41.34;101626.28;5012455;28;20058;-78
2022/01/21 05:55:25;;;;;;;13.95;11.65;;;;;;;18.48;41.36;101627.13;5011651;28;20513;-78
2022/01/21 05:58:13;;;;;;;14.18;11.45;;;;;;;18.48;41.17;101627.13;5011176;28;20137;-77
2022/01/21 06:00:46;;;;;;;13.27;11.50;;;;;;;18.49;41.31;101627.00;4995275;28;20057;-76
2022/01/21 06:03:14;;;;;;;14.27;11.38;;;;;;;18.48;41.28;101632.47;5011993;28;20053;-77
2022/01/21 06:05:43;;;;;;;12.15;10.85;;;;;;;18.46;41.51;101635.25;5011636;28;20057;-77
2022/01/21 06:08:11;;;;;;;15.07;11.30;;;;;;;18.46;41.69;101645.13;5011297;28;20054;-77
2022/01/21 06:10:38;;;;;;;14.27;11.07;;;;;;;18.43;41.85;101656.94;5011875;28;20513;-77
2022/01/21 06:13:05;;;;;;;14.55;11.45;;;;;;;18.42;41.94;101657.03;5031520;28;20057;-77
2022/01/21 06:15:34;;;;;;;15.90;11.70;;;;;;;18.41;41.97;101660.69;5031971;28;20053;-77
2022/01/21 06:18:02;;;;;;;13.18;10.63;;;;;;;18.40;41.89;101665.19;5033396;28;20482;-78
2022/01/21 06:20:30;;;;;;;12.60;10.95;;;;;;;18.42;41.92;101670.44;5033704;28;20054;-77
2022/01/21 06:22:57;;;;;;;12.18;10.88;;;;;;;18.41;41.87;101669.56;5033007;28;20053;-77
2022/01/21 06:25:25;;;;;;;12.90;10.48;;;;;;;18.42;41.74;101679.31;5033500;28;20048;-77
2022/01/21 06:27:52;;;;;;;12.02;10.73;;;;;;;18.42;41.83;101684.69;5033469;28;20038;-77
2022/01/21 06:30:19;;;;;;;12.57;10.38;;;;;;;18.42;41.83;101686.50;5033536;28;20050;-77
2022/01/21 06:32:47;;;;;;;12.88;10.80;;;;;;;18.43;41.81;101693.59;5033360;28;20060;-77
2022/01/21 06:35:15;;;;;;;12.32;10.23;;;;;;;18.43;41.81;101690.91;5033073;28;20049;-77
2022/01/21 06:37:42;;;;;;;13.55;10.85;;;;;;;18.43;41.75;101690.91;5033013;28;20049;-77
2022/01/21 06:40:10;;;;;;;14.27;11.00;;;;;;;18.40;41.76;101693.81;5033499;28;20052;-78
2022/01/21 06:42:38;;;;;;;13.52;11.35;;;;;;;18.40;41.90;101704.53;5032216;28;20057;-77
2022/01/21 06:45:05;;;;;;;13.15;11.13;;;;;;;18.40;41.86;101721.47;5033310;28;20045;-78
2022/01/21 06:47:33;;;;;;;14.32;11.63;;;;;;;18.39;41.84;101710.84;5032931;28;20041;-78
2022/01/21 06:50:00;;;;;;;12.55;10.95;;;;;;;18.39;41.82;101721.56;5032990;28;20064;-78
2022/01/21 06:52:29;;;;;;;14.38;11.65;;;;;;;18.38;41.79;101722.53;5032849;28;20392;-78
2022/01/21 06:54:57;;;;;;;15.88;12.50;;;;;;;18.38;41.82;101725.22;5033355;28;20045;-77
2022/01/21 06:57:25;;;;;;;13.70;11.90;;;;;;;18.38;41.74;101726.06;5033207;28;20469;-78
2022/01/21 06:59:53;;;;;;;16.23;11.57;;;;;;;18.38;42.00;101733.25;5031507;28;20056;-77
2022/01/21 07:02:21;;;;;;;14.35;11.77;;;;;;;18.37;41.92;101731.56;5032832;28;20045;-77
2022/01/21 07:04:49;;;;;;;14.18;11.90;;;;;;;18.36;41.90;101735.19;5033420;28;20056;-77
2022/01/21 07:07:20;;;;;;;13.90;12.02;;;;;;;18.38;41.91;101738.63;5033506;28;20046;-77
2022/01/21 07:09:48;;;;;;;13.45;11.35;;;;;;;18.38;41.87;101746.66;5032588;28;20041;-77
2022/01/21 07:12:15;;;;;;;12.35;10.80;;;;;;;18.38;41.84;101749.34;5032553;28;20049;-76
2022/01/21 07:14:42;;;;;;;14.18;12.57;;;;;;;18.39;41.78;101751.06;5033001;28;20045;-76
2022/01/21 07:17:10;;;;;;;13.23;11.70;;;;;;;18.37;41.80;101753.00;5031213;28;20052;-76
2022/01/21 07:19:37;;;;;;;13.75;11.73;;;;;;;18.37;41.90;101751.16;5031378;28;20041;-76
2022/01/21 07:22:05;;;;;;;12.50;10.77;;;;;;;18.37;41.95;101758.34;5032955;28;20049;-77
2022/01/21 07:24:33;;;;;;;14.27;11.60;;;;;;;18.38;41.84;101760.06;5032506;28;20060;-76
2022/01/21 07:27:00;;;;;;;14.32;11.48;;;;;;;18.38;41.73;101758.25;5033205;28;20056;-76
2022/01/21 07:29:28;;;;;;;15.45;11.95;;;;;;;18.39;41.88;101759.09;5032730;28;20056;-75
2022/01/21 07:31:55;;;;;;;14.70;11.95;;;;;;;18.39;41.75;101764.47;5032491;28;20056;-76
2022/01/21 07:34:24;;;;;;;16.95;13.10;;;;;;;18.38;41.63;101771.66;5032899;28;20045;-76
2022/01/21 07:36:53;;;;;;;16.80;12.73;;;;;;;18.35;42.19;101779.03;5032465;28;20089;-76
2022/01/21 07:39:21;;;;;;;18.58;12.48;;;;;;;18.32;42.28;101780.13;5031185;28;20053;-76
2022/01/21 07:41:49;;;;;;;16.13;12.55;;;;;;;18.31;42.29;101778.41;5032502;28;20053;-77
2022/01/21 07:44:17;;;;;;;16.08;12.98;;;;;;;18.30;42.30;101779.34;5031434;28;20053;-77
2022/01/21 07:46:45;;;;;;;13.93;11.90;;;;;;;18.31;42.07;101793.59;5033581;28;20045;-78
2022/01/21 07:49:14;;;;;;;16.13;12.18;;;;;;;18.31;42.16;101793.59;5036167;28;20056;-77
2022/01/21 07:51:43;;;;;;;16.85;11.38;;;;;;;18.31;42.38;101807.00;5035750;28;20481;-77
2022/01/21 07:54:11;;;;;;;15.32;12.48;;;;;;;18.32;42.34;101814.13;5035305;28;20049;-77
2022/01/21 07:56:39;;;;;;;17.35;11.95;;;;;;;18.29;42.30;101812.47;5035686;28;20056;-77
2022/01/21 07:59:10;;;;;;;14.48;11.00;;;;;;;18.29;42.44;101815.16;5034620;28;20053;-77
2022/01/21 08:01:38;;;;;;;16.20;11.82;;;;;;;18.28;42.34;101818.81;5036572;28;20049;-77
2022/01/21 08:04:06;;;;;;;16.17;11.10;;;;;;;18.28;42.34;101830.38;5036443;28;20048;-78
2022/01/21 08:06:34;;;;;;;19.23;12.02;;;;;;;18.26;42.73;101829.63;5036083;28;20496;-78
2022/01/21 08:09:03;;;;;;;17.38;13.23;;;;;;;18.25;42.98;101835.94;5034506;28;20489;-79
2022/01/21 08:11:31;;;;;;;17.70;12.90;;;;;;;18.22;42.97;101837.97;5036019;28;20382;-78
2022/01/21 08:13:59;;;;;;;22.73;16.52;;;;;;;18.20;42.28;101840.75;5035893;28;20052;-78
2022/01/21 08:16:26;;;;;;;18.35;14.25;;;;;;;18.20;42.26;101847.94;5035592;28;20049;-80
2022/01/21 08:18:54;;;;;;;29.60;19.27;;;;;;;18.19;41.84;101868.53;5035244;28;20057;-79
2022/01/21 08:21:21;;;;;;;28.83;19.38;;;;;;;18.17;41.64;101864.22;5035079;28;20037;-82
2022/01/21 08:23:51;;;;;;;28.38;20.02;;;;;;;18.15;41.38;101860.75;5035465;28;20053;-78
2022/01/21 08:26:22;;;;;;;29.13;19.52;;;;;;;18.13;41.20;101866.22;5036087;28;20044;-78
2022/01/21 08:28:51;;;;;;;33.08;22.42;;;;;;;18.11;40.80;101870.84;5035090;28;20037;-79
2022/01/21 08:31:20;;;;;;;32.40;22.60;;;;;;;18.08;40.39;101868.34;5034942;28;20049;-78
2022/01/21 08:33:48;;;;;;;49.53;35.15;;;;;;;18.00;38.70;101876.88;5034532;28;20046;-79
2022/01/21 08:36:18;;;;;;;56.22;39.28;;;;;;;17.71;38.16;101884.03;5034699;28;20512;-78
2022/01/21 08:38:45;;;;;;;59.20;41.70;;;;;;;17.30;38.11;101895.47;5035183;28;20053;-78
2022/01/21 08:41:13;;;;;;;66.57;43.03;;;;;;;16.94;38.77;101886.97;5035001;28;20045;-78
2022/01/21 08:43:40;;;;;;;61.50;42.40;;;;;;;16.57;39.27;101905.13;5035006;28;20049;-78
2022/01/21 08:46:08;;;;;;;59.70;42.38;;;;;;;16.36;40.14;101907.19;5035017;28;20053;-78
2022/01/21 08:48:36;;;;;;;62.42;42.58;;;;;;;16.19;40.41;101907.25;5035104;28;20449;-78
2022/01/21 08:51:12;;;;;;;44.70;33.85;;;;;;;16.35;41.95;101918.81;5035116;28;20113;-78
2022/01/21 08:53:41;;;;;;;44.65;29.83;;;;;;;16.53;42.36;101909.78;5034923;28;20049;-78
2022/01/21 08:56:14;;;;;;;43.58;31.05;;;;;;;16.70;42.03;101911.47;5034693;28;20108;-78
2022/01/21 08:58:43;;;;;;;38.90;29.50;;;;;;;16.85;41.78;101909.75;5034670;28;20057;-78
2022/01/21 09:01:12;;;;;;;43.42;28.17;;;;;;;16.97;41.42;101922.41;5033477;28;20053;-78
2022/01/21 09:03:40;;;;;;;39.05;28.40;;;;;;;17.07;41.45;101922.75;5034843;28;20045;-78
2022/01/21 09:06:09;;;;;;;37.80;26.85;;;;;;;17.16;41.49;101922.19;5034359;28;20536;-78
2022/01/21 09:08:38;;;;;;;36.50;27.52;;;;;;;17.22;41.27;101919.16;5034736;28;20052;-78
2022/01/21 09:11:05;;;;;;;38.13;26.65;;;;;;;17.28;41.30;101925.94;5034575;28;20105;-79
2022/01/21 09:13:39;;;;;;;32.05;25.05;;;;;;;17.35;41.34;101939.84;5034510;28;20049;-78
2022/01/21 09:16:08;;;;;;;34.30;25.33;;;;;;;17.39;41.31;101944.06;5033399;28;20056;-80
2022/01/21 09:18:50;;;;;;;32.10;24.85;;;;;;;17.44;41.24;101932.09;5034356;28;20401;-78
2022/01/21 09:21:33;;;;;;;33.75;24.95;;;;;;;17.48;41.15;101946.16;5032976;28;20073;-78
2022/01/21 09:24:01;;;;;;;30.02;21.77;;;;;;;17.51;41.17;101960.22;5034340;28;20045;-78
2022/01/21 09:26:29;;;;;;;30.30;22.88;;;;;;;17.53;41.19;101965.47;5033545;28;20520;-78
2022/01/21 09:28:58;;;;;;;29.77;22.27;;;;;;;17.56;41.13;101954.59;5033621;28;20042;-78
2022/01/21 09:31:26;;;;;;;26.77;21.90;;;;;;;17.58;41.13;101960.69;5033945;28;20056;-78
2022/01/21 09:34:15;;;;;;;25.60;20.83;;;;;;;17.60;41.15;101961.50;5032320;28;20080;-78
2022/01/21 09:36:42;;;;;;;26.48;20.27;;;;;;;17.62;41.01;101964.06;5033937;28;20052;-78
2022/01/21 09:39:11;;;;;;;27.00;21.00;;;;;;;17.64;41.07;101959.50;5033985;28;20052;-78
2022/01/21 09:41:42;;;;;;;25.30;20.67;;;;;;;17.65;41.04;101966.56;5033837;28;20049;-78
2022/01/21 09:44:15;;;;;;;26.77;19.48;;;;;;;17.68;41.11;101985.13;5033862;28;20045;-78
2022/01/21 09:46:46;;;;;;;24.90;19.98;;;;;;;17.68;41.09;101988.66;5032360;28;20061;-78
2022/01/21 09:51:51;;;;;;;26.80;19.38;;;;;;;17.72;41.70;101984.00;5031054;28;20056;-78
2022/01/21 09:54:22;;;;;;;24.60;18.13;;;;;;;17.73;41.88;101986.56;5030879;28;20058;-77
2022/01/21 09:56:52;;;;;;;24.45;17.55;;;;;;;17.76;42.06;101994.44;5025398;28;20053;-80
2022/01/21 09:59:22;;;;;;;23.05;17.63;;;;;;;17.75;41.81;101981.16;5028078;28;20053;-79
2022/01/21 10:01:52;;;;;;;24.40;18.58;;;;;;;17.78;41.68;101989.00;5022676;28;20413;-77
2022/01/21 10:04:24;;;;;;;26.20;18.50;;;;;;;17.78;42.29;101994.34;5020557;28;20045;-78
2022/01/21 10:06:54;;;;;;;25.85;18.10;;;;;;;17.80;41.82;102000.47;5033270;28;20401;-77
2022/01/21 10:09:24;;;;;;;24.23;17.50;;;;;;;17.81;42.22;102012.06;5032474;28;20042;-78
2022/01/21 10:11:54;;;;;;;23.40;17.95;;;;;;;17.84;42.47;102027.94;5035336;28;20060;-78
2022/01/21 10:14:24;;;;;;;23.25;17.20;;;;;;;17.84;42.23;102028.81;5032935;28;20042;-78
2022/01/21 10:16:52;;;;;;;24.48;17.08;;;;;;;17.85;42.35;102021.63;5033247;28;20045;-78
2022/01/21 10:19:33;;;;;;;22.17;16.55;;;;;;;17.88;42.62;102019.63;5032920;28;20041;-78
2022/01/21 10:22:05;;;;;;;21.63;17.25;;;;;;;17.88;42.19;102018.78;5032541;28;20057;-78
2022/01/21 10:24:35;;;;;;;18.75;16.13;;;;;;;17.87;41.91;102017.06;5032466;28;20060;-78
2022/01/21 10:27:03;;;;;;;20.65;16.75;;;;;;;17.86;41.75;102015.31;5011458;28;20053;-78
2022/01/21 10:29:39;;;;;;;19.25;16.92;;;;;;;17.86;41.55;102009.94;5023182;28;20041;-78
2022/01/21 10:32:08;;;;;;;19.73;16.60;;;;;;;17.86;41.58;102000.09;5031864;28;20045;-77
2022/01/21 10:34:35;;;;;;;23.08;18.05;;;;;;;17.88;41.67;102013.41;5032521;28;20488;-77
2022/01/21 10:37:10;;;;;;;22.13;16.58;;;;;;;17.89;41.71;101999.06;5032212;28;20381;-82
2022/01/21 10:40:17;;;;;;;24.73;16.88;;;;;;;17.90;41.62;102006.13;5032157;28;20080;-78
2022/01/21 10:42:45;;;;;;;19.15;16.67;;;;;;;17.91;41.58;102018.59;4990675;28;20046;-78
2022/01/21 10:45:12;;;;;;;21.15;16.13;;;;;;;17.92;41.72;102018.50;4990849;28;20092;-78
2022/01/21 10:47:48;;;;;;;23.95;16.95;;;;;;;17.93;41.60;102009.50;4990222;28;20054;-78
2022/01/21 10:50:22;;;;;;;20.95;16.48;;;;;;;17.95;41.75;101993.34;4990933;28;20057;-78
2022/01/21 10:52:52;;;;;;;20.80;15.88;;;;;;;17.98;41.75;101987.75;4990235;28;20058;-78
2022/01/21 10:55:31;;;;;;;19.30;15.32;;;;;;;18.00;41.85;101981.38;4957784;28;20361;-77
2022/01/21 10:58:16;;;;;;;17.15;15.40;;;;;;;18.02;41.91;101978.59;4990848;28;20050;-78
2022/01/21 11:01:02;;;;;;;18.83;15.05;;;;;;;18.02;41.82;101967.88;4973941;28;20058;-78
2022/01/21 11:03:30;;;;;;;17.63;15.02;;;;;;;18.04;41.94;101977.53;4973179;28;20474;-78
2022/01/21 11:06:15;;;;;;;19.90;14.57;;;;;;;18.06;41.86;101972.06;4970803;28;20596;-78
2022/01/21 11:08:42;;;;;;;19.90;15.85;;;;;;;18.08;41.94;101963.97;4990570;28;20046;-78
2022/01/21 11:11:10;;;;;;;17.23;14.82;;;;;;;18.10;42.03;101968.25;4990384;28;20042;-77
2022/01/21 11:13:40;;;;;;;21.85;15.73;;;;;;;18.11;41.99;101959.28;5011663;28;20057;-78
2022/01/21 11:16:13;;;;;;;17.05;13.85;;;;;;;18.11;42.00;101955.69;5032044;28;20049;-77
2022/01/21 11:19:09;;;;;;;17.35;14.95;;;;;;;18.13;42.16;101960.03;5031382;28;20041;-78
2022/01/21 11:21:39;;;;;;;18.33;14.73;;;;;;;18.15;42.01;101970.63;5032562;28;20054;-77
2022/01/21 11:24:08;;;;;;;18.83;15.07;;;;;;;18.16;42.02;101975.91;5034867;28;20041;-77
2022/01/21 11:26:36;;;;;;;17.92;14.32;;;;;;;18.16;42.11;101986.63;5035718;28;20044;-77
2022/01/21 11:29:05;;;;;;;18.95;14.40;;;;;;;18.18;41.99;101983.84;5035264;28;20397;-77
2022/01/21 11:31:33;;;;;;;16.75;14.45;;;;;;;18.19;42.10;101977.53;5035527;28;20045;-78
2022/01/21 11:34:11;;;;;;;19.23;14.45;;;;;;;18.20;42.08;101988.16;5035858;28;20048;-75
2022/01/21 11:36:38;;;;;;;20.52;14.98;;;;;;;18.20;42.22;101990.84;5034704;28;20045;-77
2022/01/21 11:39:06;;;;;;;18.15;14.50;;;;;;;18.22;42.28;101996.94;5035246;28;20037;-77
2022/01/21 11:41:35;;;;;;;19.13;14.20;;;;;;;18.23;42.32;101990.66;5035619;28;20041;-77
2022/01/21 11:44:05;;;;;;;18.20;15.15;;;;;;;18.25;42.45;101996.78;5034180;28;20524;-76
2022/01/21 11:49:08;;;;;;;17.45;14.10;;;;;;;18.27;42.36;101992.19;5034436;28;20493;-77
2022/01/21 11:51:39;;;;;;;21.45;14.80;;;;;;;18.28;42.18;101990.38;5034800;28;20108;-77
2022/01/21 11:54:15;;;;;;;19.95;14.82;;;;;;;18.27;42.08;101988.63;5035027;28;20413;-77
2022/01/21 11:56:55;;;;;;;17.27;13.98;;;;;;;18.26;41.84;101985.09;5034057;28;20401;-77
2022/01/21 12:02:19;;;;;;;19.58;14.75;;;;;;;18.24;41.76;101978.13;5034852;28;20366;-76
2022/01/21 12:05:09;;;;;;;16.25;13.98;;;;;;;18.23;41.91;101965.66;5029941;28;20052;-77
2022/01/21 12:07:41;;;;;;;18.20;14.15;;;;;;;18.22;41.63;101954.06;5034061;28;20053;-77
2022/01/21 12:10:18;;;;;;;17.00;13.50;;;;;;;18.20;41.73;101945.28;5018322;28;20042;-78
2022/01/21 12:15:29;;;;;;;15.05;12.80;;;;;;;18.23;41.30;101941.53;5015449;28;20050;-77
2022/01/21 12:20:59;;;;;;;18.23;12.60;;;;;;;18.25;41.41;101947.66;5014453;28;20053;-78
2022/01/21 12:23:28;;;;;;;17.92;14.23;;;;;;;18.26;41.19;101958.28;5053282;28;20064;-78
2022/01/21 12:26:17;;;;;;;18.13;12.55;;;;;;;18.27;41.29;101962.69;5053607;28;20049;-77